• Join FlightAware (Why Join?)
  • Login
  • US Flag 
08:07AM EST


 

Airport Tracker/Info


-or-


 

Live Flight TrackerFlight Track Log ✈ JBU24 ✈ 09-May-2013 ✈ KJFK - KSYR

Flight Track Log - Related Links

Times and Time Zones

All times are in EDT time to prevent confusion due to time zone crossing. See the JBU24 flight status page for this flight to view local times or setup timezone preferences in your user account.

Time Position Orientation Groundspeed Altitude Reporting Facility
EDT Latitude Longitude Course Direction KTS MPH feet Rate Location/Type
05:23PM 40.6000 -73.8000 304° West 163 188 2,000  Level New York TRACON
05:24PM 40.5833 -73.7167 105° East 236 272 4,000 2,280 Climbing New York TRACON
05:25PM 40.8639 -74.0874 311° West  Level FlightAware Approximate
05:25PM 40.6000 -73.6333 75° East 249 287 6,800  Level New York TRACON
05:26PM 40.9198 -74.1708 316° Northwest  Level FlightAware Approximate
05:26PM 40.6667 -73.5833 30° Northeast 257 296 9,200  Level New York TRACON
05:27PM 40.9803 -74.2484 316° Northwest  Level FlightAware Approximate
05:27PM 40.7500 -73.6000 351° North 284 327 12,100  Level New York TRACON
05:28PM 41.0391 -74.3282 304° West  Level FlightAware Approximate
05:28PM 40.8167 -73.6167 349° North 296 341 14,900  Level New York TRACON
05:29PM 40.9000 -73.6667 336° Northwest 306 352 17,000 1,020 Climbing New York TRACON
05:30PM 40.9667 -73.7167 330° Northwest 312 359 17,000  Level New York TRACON
05:31PM 41.0333 -73.7833 323° Northwest 311 358 17,000  Level New York TRACON
05:32PM 41.0667 -73.9000 291° West 306 352 17,000  Level New York TRACON
05:34PM 41.1200 -74.1339 287° West 345 397 17,000  Level New York Center
05:35PM 41.1517 -74.2594 289° West 356 410 17,000  Level New York Center
05:36PM 41.1814 -74.3825 288° West 356 410 17,000  Level New York Center
05:37PM 41.2108 -74.5053 288° West 350 403 17,000  Level New York Center
05:38PM 41.2508 -74.6206 295° West 350 403 17,000 960 Level New York Center
05:39PM 41.3064 -74.7094 310° West 345 397 19,000 2,040 Climbing New York Center
05:40PM 41.3694 -74.8128 309° West 351 404 21,100 1,440 Climbing New York Center
05:41PM 41.4364 -74.9219 309° West 362 417 22,000 420 Climbing New York Center
05:42PM 41.4994 -75.0283 308° West 362 417 22,000  Level New York Center
05:43PM 41.5642 -75.1350 309° West 362 417 22,000  Level New York Center
05:44PM 41.6308 -75.2419 310° West 362 417 22,000  Level New York Center
05:45PM 41.6936 -75.3489 308° West 362 417 22,000  Level New York Center
05:46PM 41.7581 -75.4561 309° West 362 417 22,000  Level New York Center
05:47PM 41.8203 -75.5636 308° West 362 417 22,000  Level New York Center
05:48PM 41.8844 -75.6742 308° West 362 417 22,000 -240 Level New York Center
05:49PM 41.9489 -75.7819 309° West 362 417 21,600 -960 Descending New York Center
05:50PM 42.0128 -75.8900 309° West 362 417 20,100 -1,320 Descending New York Center
05:51PM 42.0728 -75.9953 308° West 362 417 19,000 -840 Descending New York Center
05:52PM 42.1350 -76.0981 309° West 357 411 18,500 -1,320 Descending New York Center
05:53PM 42.2269 -76.1364 343° North 350 403 16,500 -2,160 Descending New York Center
05:54PM 42.3428 -76.1203 North 333 383 13,900 -2,280 Descending Boston Center
05:54PM 42.3783 -76.1139 North 329 379 13,100 -1,920 Descending Boston Center
05:55PM 42.4811 -76.1003 North 331 381 11,000 -1,020 Descending Boston Center
05:56PM 42.5711 -76.0914 North 326 375 11,000 -360 Level Boston Center
05:57PM 42.6492 -76.1272 341° North 280 322 10,300 -1,380 Descending Boston Center
05:58PM 42.7139 -76.1819 328° Northwest 266 306 8,300 -1,860 Descending Boston Center
05:59PM 42.7747 -76.2336 328° Northwest 266 306 6,600 -1,680 Descending Boston Center
06:00PM 42.8439 -76.2889 330° Northwest 263 303 5,000 -1,320 Descending Boston Center
06:02PM 42.9044 -76.3436 327° Northwest 258 297 4,000 -840 Descending Boston Center
06:03PM 42.9653 -76.3931 329° Northwest 254 292 3,400 -540 Descending Boston Center
06:04PM 43.0261 -76.4425 329° Northwest 251 289 3,000 -240 Descending Boston Center
06:05PM 43.0847 -76.4975 326° Northwest 254 292 3,000  Level Boston Center
06:06PM 43.1461 -76.5328 337° Northwest 238 274 3,000  Level Boston Center